Time;durP1;ratioP1;P1;durP2;ratioP2;P2;SDS_P1;SDS_P2;PMS_P1;PMS_P2;Temp;Humidity;BMP_temperature;BMP_pressure;BME280_temperature;BME280_humidity;BME280_pressure;Samples;Min_cycle;Max_cycle;Signal;HPM_P1;HPM_P2
2022/01/04 00:00:50;;;;;;;35.97;18.55;;;;;;;6.62;100.00;98728.88;5053214;28;20029;-74
2022/01/04 00:03:16;;;;;;;42.63;19.48;;;;;;;6.60;100.00;98734.22;5055827;28;20342;-74
2022/01/04 00:05:41;;;;;;;40.78;19.13;;;;;;;6.59;100.00;98721.91;5054386;28;20025;-74
2022/01/04 00:08:10;;;;;;;33.47;18.85;;;;;;;6.57;100.00;98721.94;5055676;28;20052;-74
2022/01/04 00:10:36;;;;;;;31.80;18.17;;;;;;;6.66;100.00;98733.13;5055611;28;20028;-74
2022/01/04 00:15:45;;;;;;;35.03;19.45;;;;;;;6.73;100.00;98726.63;5055862;28;20052;-75
2022/01/04 00:18:11;;;;;;;33.70;18.40;;;;;;;6.74;100.00;98719.56;5055506;28;20116;-74
2022/01/04 00:20:36;;;;;;;33.60;17.77;;;;;;;6.75;100.00;98714.16;5055601;28;20025;-74
2022/01/04 00:23:02;;;;;;;34.47;18.98;;;;;;;6.66;100.00;98704.81;5055693;28;20025;-74
2022/01/04 00:25:28;;;;;;;35.95;18.27;;;;;;;6.67;100.00;98706.56;5055324;28;20366;-74
2022/01/04 00:27:53;;;;;;;36.05;20.08;;;;;;;6.74;100.00;98696.53;5055133;28;20089;-75
2022/01/04 00:30:18;;;;;;;37.00;18.88;;;;;;;6.71;100.00;98683.41;5055279;28;20025;-75
2022/01/04 00:32:44;;;;;;;35.10;19.75;;;;;;;6.74;100.00;98685.06;5055183;28;20033;-74
2022/01/04 00:35:09;;;;;;;34.22;18.45;;;;;;;6.70;100.00;98677.22;5053745;28;20186;-75
2022/01/04 00:37:34;;;;;;;35.38;18.92;;;;;;;6.71;100.00;98675.44;5053743;28;20031;-74
2022/01/04 00:40:00;;;;;;;35.78;19.90;;;;;;;6.64;100.00;98664.22;5055117;28;20032;-75
2022/01/04 00:42:26;;;;;;;37.70;19.25;;;;;;;6.57;100.00;98671.53;5055260;28;20036;-74
2022/01/04 00:44:51;;;;;;;40.30;19.98;;;;;;;6.61;100.00;98663.47;5054994;28;20020;-75
2022/01/04 00:47:19;;;;;;;32.83;19.15;;;;;;;6.73;100.00;98649.72;5055172;28;20021;-74
2022/01/04 00:49:45;;;;;;;31.67;19.33;;;;;;;6.61;100.00;98658.16;5054783;28;20067;-74
2022/01/04 00:52:16;;;;;;;35.40;20.35;;;;;;;6.62;100.00;98659.91;5055084;28;20021;-75
2022/01/04 00:54:41;;;;;;;38.95;19.35;;;;;;;6.56;100.00;98656.56;5054996;28;20166;-75
2022/01/04 00:57:06;;;;;;;32.38;19.42;;;;;;;6.54;100.00;98644.31;5053385;28;20032;-74
2022/01/04 00:59:32;;;;;;;33.88;19.67;;;;;;;6.59;100.00;98645.84;5054825;28;20032;-74
2022/01/04 01:01:57;;;;;;;37.10;20.60;;;;;;;6.62;100.00;98642.22;5053286;28;20023;-74
2022/01/04 01:04:23;;;;;;;39.58;20.73;;;;;;;6.65;100.00;98641.22;5054548;28;20024;-74
2022/01/04 01:06:49;;;;;;;34.38;20.13;;;;;;;6.58;100.00;98635.28;5054613;28;20520;-74
2022/01/04 01:09:14;;;;;;;39.25;21.70;;;;;;;6.62;100.00;98631.59;5097660;22;20037;-87
2022/01/04 01:11:39;;;;;;;37.28;20.45;;;;;;;6.66;100.00;98621.72;5074102;28;20012;-87
2022/01/04 01:14:05;;;;;;;39.10;22.27;;;;;;;6.68;100.00;98617.19;5073899;28;20044;-87
2022/01/04 01:16:30;;;;;;;35.47;21.38;;;;;;;6.61;100.00;98602.47;5075587;28;20106;-87
2022/01/04 01:18:55;;;;;;;33.92;19.98;;;;;;;6.73;100.00;98601.97;5073827;28;20025;-88
2022/01/04 01:21:21;;;;;;;33.92;21.08;;;;;;;6.61;100.00;98594.50;5074233;28;20017;-88
2022/01/04 01:23:46;;;;;;;40.65;21.27;;;;;;;6.63;100.00;98592.66;5073927;28;20029;-87
2022/01/04 01:26:11;;;;;;;36.70;21.02;;;;;;;6.59;100.00;98592.81;5073743;28;20048;-87
2022/01/04 01:28:37;;;;;;;37.35;21.17;;;;;;;6.58;100.00;98591.06;5073686;28;20388;-87
2022/01/04 01:31:03;;;;;;;38.85;21.35;;;;;;;6.58;100.00;98584.91;5074073;28;20388;-87
2022/01/04 01:33:28;;;;;;;36.10;20.92;;;;;;;6.59;100.00;98581.31;5074840;28;20070;-87
2022/01/04 01:35:55;;;;;;;39.58;21.95;;;;;;;6.55;100.00;98575.28;5073840;28;20032;-87
2022/01/04 01:38:20;;;;;;;41.72;22.98;;;;;;;6.58;100.00;98575.16;5073936;28;20025;-87
2022/01/04 01:40:47;;;;;;;35.78;21.58;;;;;;;6.61;100.00;98579.47;5073895;28;20078;-85
2022/01/04 01:43:12;;;;;;;36.20;20.70;;;;;;;6.59;100.00;98560.97;5073916;28;20024;-85
2022/01/04 01:45:41;;;;;;;34.42;21.40;;;;;;;6.63;100.00;98567.00;5073605;28;20042;-85
2022/01/04 01:48:07;;;;;;;35.95;21.83;;;;;;;6.56;100.00;98554.94;5074008;28;20107;-85
2022/01/04 01:50:32;;;;;;;34.70;21.10;;;;;;;6.54;100.00;98551.47;5073771;28;20052;-85
2022/01/04 01:52:59;;;;;;;34.15;19.80;;;;;;;6.58;100.00;98553.94;5073724;28;20064;-85
2022/01/04 01:55:24;;;;;;;37.90;21.05;;;;;;;6.59;100.00;98560.13;5073558;28;20036;-85
2022/01/04 01:57:51;;;;;;;40.78;21.42;;;;;;;6.56;100.00;98555.81;5075113;28;20028;-84
2022/01/04 02:00:19;;;;;;;39.10;21.83;;;;;;;6.69;100.00;98560.59;5073516;28;20028;-85
2022/01/04 02:02:44;;;;;;;31.52;20.52;;;;;;;6.63;100.00;98547.56;5073440;28;20115;-85
2022/01/04 02:05:10;;;;;;;34.17;19.50;;;;;;;6.61;100.00;98541.47;5073508;28;20036;-84
2022/01/04 02:07:37;;;;;;;34.55;18.98;;;;;;;6.64;100.00;98530.75;5073639;28;20481;-83
2022/01/04 02:10:06;;;;;;;33.08;19.80;;;;;;;6.61;100.00;98529.06;5073105;28;20432;-85
2022/01/04 02:12:40;;;;;;;32.63;20.75;;;;;;;6.53;100.00;98533.84;5073285;28;20037;-84
2022/01/04 02:15:09;;;;;;;33.92;20.38;;;;;;;6.54;100.00;98531.13;5074148;28;20032;-85
2022/01/04 02:17:34;;;;;;;31.90;19.77;;;;;;;6.59;100.00;98529.16;5073443;28;20048;-84
2022/01/04 02:20:00;;;;;;;34.88;19.60;;;;;;;6.62;100.00;98527.28;5074552;28;20432;-85
2022/01/04 02:22:26;;;;;;;31.23;18.83;;;;;;;6.64;100.00;98517.47;5073026;28;20393;-85
2022/01/04 02:24:52;;;;;;;30.10;18.98;;;;;;;6.59;100.00;98509.72;5074878;28;20103;-83
2022/01/04 02:27:18;;;;;;;28.02;17.88;;;;;;;6.58;100.00;98514.16;5072917;28;20025;-85
2022/01/04 02:29:45;;;;;;;27.50;18.17;;;;;;;6.59;100.00;98509.72;5073099;28;20031;-85
2022/01/04 02:32:11;;;;;;;28.17;18.20;;;;;;;6.59;100.00;98510.59;5072982;28;20032;-85
2022/01/04 02:34:37;;;;;;;29.33;18.33;;;;;;;6.59;100.00;98502.63;5074476;28;20472;-84
2022/01/04 02:37:02;;;;;;;27.50;18.02;;;;;;;6.61;100.00;98499.03;5072904;28;20025;-84
2022/01/04 02:39:28;;;;;;;28.52;17.55;;;;;;;6.61;100.00;98501.69;5072696;28;20024;-84
2022/01/04 02:41:53;;;;;;;28.13;17.10;;;;;;;6.56;100.00;98500.09;5072723;28;20031;-84
2022/01/04 02:44:18;;;;;;;26.55;16.55;;;;;;;6.52;100.00;98495.84;5073081;28;20154;-85
2022/01/04 02:46:44;;;;;;;27.63;17.10;;;;;;;6.50;100.00;98497.69;5072960;28;20023;-84
2022/01/04 02:49:09;;;;;;;25.58;16.23;;;;;;;6.51;100.00;98496.78;5073621;28;20060;-84
2022/01/04 02:51:35;;;;;;;25.25;16.08;;;;;;;6.52;100.00;98474.63;5073155;28;20023;-82
2022/01/04 02:54:00;;;;;;;24.85;17.30;;;;;;;6.48;100.00;98479.22;5073983;28;20033;-84
2022/01/04 02:56:25;;;;;;;26.55;17.45;;;;;;;6.49;100.00;98469.47;5072537;28;20486;-84
2022/01/04 02:58:51;;;;;;;25.35;16.98;;;;;;;6.54;100.00;98471.94;5074551;28;20028;-82
2022/01/04 03:01:16;;;;;;;25.50;15.77;;;;;;;6.44;100.00;98463.50;5074193;28;20408;-84
2022/01/04 03:03:41;;;;;;;25.65;15.65;;;;;;;6.47;100.00;98455.41;5072960;28;20388;-84
2022/01/04 03:06:11;;;;;;;25.10;15.68;;;;;;;6.46;100.00;98469.59;5073350;28;20035;-83
2022/01/04 03:08:37;;;;;;;24.70;15.98;;;;;;;6.42;100.00;98444.13;5072850;28;20122;-83
2022/01/04 03:11:02;;;;;;;26.98;14.77;;;;;;;6.40;100.00;98446.00;5073006;28;20044;-85
2022/01/04 03:13:27;;;;;;;22.58;15.60;;;;;;;6.42;100.00;98452.09;5072654;28;20389;-84
2022/01/04 03:15:53;;;;;;;23.95;14.15;;;;;;;6.38;100.00;98454.03;5073981;28;20351;-84
2022/01/04 03:18:18;;;;;;;22.88;15.45;;;;;;;6.31;100.00;98461.38;5072446;28;20028;-84
2022/01/04 03:20:43;;;;;;;23.08;15.10;;;;;;;6.33;100.00;98459.53;5073825;28;20025;-85
2022/01/04 03:23:10;;;;;;;25.63;14.90;;;;;;;6.30;100.00;98442.88;5072642;28;20031;-84
2022/01/04 03:25:36;;;;;;;22.15;14.07;;;;;;;6.26;100.00;98432.38;5074051;28;20012;-85
2022/01/04 03:28:03;;;;;;;22.63;14.48;;;;;;;6.23;100.00;98435.19;5072398;28;20023;-84
2022/01/04 03:30:28;;;;;;;22.83;14.77;;;;;;;6.23;100.00;98436.97;5072404;28;20027;-87
2022/01/04 03:32:54;;;;;;;23.70;14.07;;;;;;;6.23;100.00;98435.19;5072157;28;20020;-87
2022/01/04 03:35:21;;;;;;;23.55;14.15;;;;;;;6.22;100.00;98424.63;5073257;28;20071;-87
2022/01/04 03:37:46;;;;;;;22.13;14.18;;;;;;;6.23;100.00;98419.28;5076031;28;20025;-88
2022/01/04 03:40:12;;;;;;;22.75;14.70;;;;;;;6.23;100.00;98406.03;5075957;28;20030;-87
2022/01/04 03:42:37;;;;;;;20.83;13.73;;;;;;;6.19;100.00;98414.16;5076289;28;20055;-87
2022/01/04 03:45:04;;;;;;;21.52;14.48;;;;;;;6.16;100.00;98401.06;5075844;28;20119;-87
2022/01/04 03:47:29;;;;;;;26.27;15.70;;;;;;;6.16;100.00;98403.72;5075724;28;20031;-87
2022/01/04 03:49:54;;;;;;;22.95;14.43;;;;;;;6.08;100.00;98399.56;5075903;28;20029;-86
2022/01/04 03:52:20;;;;;;;27.63;15.90;;;;;;;6.11;100.00;98387.97;5077602;28;20020;-87
2022/01/04 03:54:45;;;;;;;24.92;15.93;;;;;;;6.17;100.00;98389.50;5075392;28;20036;-88
2022/01/04 03:57:10;;;;;;;28.60;16.08;;;;;;;6.05;100.00;98375.84;5076509;28;20397;-87
2022/01/04 03:59:36;;;;;;;25.52;16.02;;;;;;;6.03;100.00;98375.06;5075983;28;20028;-87
2022/01/04 04:02:01;;;;;;;28.95;16.48;;;;;;;6.02;100.00;98382.13;5077114;28;20158;-88
2022/01/04 04:04:27;;;;;;;26.88;16.40;;;;;;;6.01;100.00;98375.09;5077030;28;20028;-87
2022/01/04 04:06:52;;;;;;;26.60;16.85;;;;;;;6.00;100.00;98367.22;5075509;28;20024;-86
2022/01/04 04:09:17;;;;;;;26.98;16.60;;;;;;;6.06;100.00;98361.66;5075304;28;20040;-87
2022/01/04 04:11:45;;;;;;;27.75;16.83;;;;;;;6.04;100.00;98353.78;5075326;28;20108;-87
2022/01/04 04:14:11;;;;;;;28.38;16.90;;;;;;;6.00;100.00;98348.69;5076903;28;20397;-87
2022/01/04 04:16:36;;;;;;;28.65;16.92;;;;;;;6.06;100.00;98345.75;5075217;28;20524;-87
2022/01/04 04:19:02;;;;;;;30.42;17.55;;;;;;;6.03;100.00;98340.59;5075058;28;20029;-88
2022/01/04 04:21:30;;;;;;;28.98;18.35;;;;;;;6.06;100.00;98351.06;5076540;28;20374;-87
2022/01/04 04:23:55;;;;;;;30.70;17.92;;;;;;;6.07;100.00;98342.22;5076543;28;20024;-86
2022/01/04 04:26:20;;;;;;;29.80;18.55;;;;;;;6.01;100.00;98330.06;5075115;28;20020;-87
2022/01/04 04:28:46;;;;;;;31.73;18.55;;;;;;;6.03;100.00;98328.19;5075122;28;20021;-84
2022/01/04 04:31:11;;;;;;;34.50;18.65;;;;;;;6.02;100.00;98320.31;5076246;28;20030;-85
2022/01/04 04:33:36;;;;;;;31.05;18.92;;;;;;;6.01;100.00;98310.66;5074753;28;20031;-84
2022/01/04 04:36:02;;;;;;;29.80;17.80;;;;;;;6.04;100.00;98305.22;5075953;28;20024;-85
2022/01/04 04:38:28;;;;;;;31.02;18.77;;;;;;;6.04;100.00;98303.44;5076109;28;20024;-85
2022/01/04 04:40:53;;;;;;;30.15;18.77;;;;;;;6.01;100.00;98298.25;5075224;28;20024;-84
2022/01/04 04:43:18;;;;;;;31.65;18.42;;;;;;;6.03;100.00;98284.97;5076147;28;20409;-85
2022/01/04 04:45:43;;;;;;;32.28;18.88;;;;;;;6.06;100.00;98287.47;5074819;28;20017;-83
2022/01/04 04:48:09;;;;;;;32.17;19.25;;;;;;;6.05;100.00;98283.09;5073600;28;20123;-85
2022/01/04 04:50:35;;;;;;;35.28;19.67;;;;;;;5.98;100.00;98277.19;5074687;28;20024;-84
2022/01/04 04:53:00;;;;;;;34.17;19.45;;;;;;;5.97;100.00;98277.28;5075219;28;20389;-85
2022/01/04 04:55:26;;;;;;;36.25;19.70;;;;;;;6.05;100.00;98264.56;5075284;28;20393;-85
2022/01/04 04:57:51;;;;;;;32.47;19.27;;;;;;;5.96;100.00;98252.56;5075193;28;20024;-83
2022/01/04 05:00:17;;;;;;;36.40;19.50;;;;;;;5.97;100.00;98253.44;5075955;28;20060;-84
2022/01/04 05:02:42;;;;;;;32.13;18.85;;;;;;;6.04;100.00;98253.09;5074746;28;20027;-85
2022/01/04 05:05:08;;;;;;;33.83;20.13;;;;;;;5.92;100.00;98243.91;5074588;28;20031;-85
2022/01/04 05:07:35;;;;;;;34.60;18.88;;;;;;;5.91;100.00;98244.81;5074466;28;20089;-83
2022/01/04 05:10:06;;;;;;;33.65;18.73;;;;;;;5.97;100.00;98256.94;5076013;28;20468;-83
2022/01/04 05:12:31;;;;;;;34.30;19.80;;;;;;;5.96;100.00;98249.91;5074308;28;20111;-84
2022/01/04 05:14:57;;;;;;;38.60;19.98;;;;;;;5.93;100.00;98255.34;5074142;28;20568;-84
2022/01/04 05:17:22;;;;;;;34.60;19.65;;;;;;;5.89;100.00;98244.03;5075637;28;20039;-84
2022/01/04 05:19:48;;;;;;;40.65;21.80;;;;;;;5.85;100.00;98244.25;5073914;28;20021;-86
2022/01/04 05:22:13;;;;;;;32.20;19.55;;;;;;;5.92;100.00;98235.97;5073755;28;20028;-86
2022/01/04 05:24:38;;;;;;;35.35;20.42;;;;;;;5.85;100.00;98231.84;5075652;28;20081;-89
2022/01/04 05:27:05;;;;;;;34.90;20.33;;;;;;;5.93;100.00;98239.44;5074258;28;20098;-87
2022/01/04 05:29:30;;;;;;;35.92;21.38;;;;;;;5.90;100.00;98240.44;5074875;28;20477;-87
2022/01/04 05:31:55;;;;;;;40.30;23.23;;;;;;;5.83;100.00;98233.69;5073677;28;20050;-86
2022/01/04 05:34:21;;;;;;;39.92;22.30;;;;;;;5.86;100.00;98217.69;5075160;28;20024;-88
2022/01/04 05:36:46;;;;;;;38.95;22.13;;;;;;;5.76;100.00;98216.34;5075021;28;20024;-90
2022/01/04 05:39:12;;;;;;;38.67;22.00;;;;;;;5.77;100.00;98223.38;5073345;28;20075;-88
2022/01/04 05:41:37;;;;;;;40.55;22.13;;;;;;;5.78;100.00;98217.16;5074619;28;20032;-89
2022/01/04 05:44:02;;;;;;;40.97;22.10;;;;;;;5.78;100.00;98215.38;5075014;28;20029;-88
2022/01/04 05:46:28;;;;;;;40.67;20.98;;;;;;;5.81;100.00;98215.22;5073426;28;20021;-89
2022/01/04 05:48:53;;;;;;;40.13;22.20;;;;;;;5.78;100.00;98219.78;5074390;28;20367;-88
2022/01/04 05:51:18;;;;;;;37.60;20.95;;;;;;;5.79;100.00;98216.22;5073327;28;20470;-89
2022/01/04 05:53:44;;;;;;;38.22;20.77;;;;;;;5.86;100.00;98222.97;5074823;28;20036;-88
2022/01/04 05:56:10;;;;;;;34.75;19.20;;;;;;;5.81;100.00;98214.38;5074711;28;20090;-87
2022/01/04 05:58:35;;;;;;;38.58;21.50;;;;;;;5.90;100.00;98211.31;5073869;28;20024;-87
2022/01/04 06:01:00;;;;;;;37.22;20.10;;;;;;;5.83;100.00;98215.16;5075163;28;20032;-88
2022/01/04 06:03:26;;;;;;;41.97;20.75;;;;;;;5.79;100.00;98210.94;5074944;28;20054;-87
2022/01/04 06:05:53;;;;;;;37.13;20.23;;;;;;;5.80;100.00;98223.22;5074983;28;20096;-87
2022/01/04 06:08:20;;;;;;;36.70;20.38;;;;;;;5.79;100.00;98226.81;5073000;28;20032;-89
2022/01/04 06:10:50;;;;;;;38.83;20.23;;;;;;;5.96;100.00;98211.97;5074624;28;20020;-88
2022/01/04 06:15:59;;;;;;;36.30;20.17;;;;;;;5.81;100.00;98196.69;5075013;28;20495;-88
2022/01/04 06:18:25;;;;;;;39.90;21.17;;;;;;;5.84;100.00;98181.59;5074750;28;20028;-88
2022/01/04 06:20:51;;;;;;;39.78;21.13;;;;;;;5.78;100.00;98188.00;5073329;28;20030;-87
2022/01/04 06:23:16;;;;;;;35.45;19.55;;;;;;;5.76;100.00;98187.22;5074633;28;20027;-88
2022/01/04 06:25:42;;;;;;;35.50;18.88;;;;;;;5.76;100.00;98196.03;5073537;28;20103;-88
2022/01/04 06:28:08;;;;;;;38.40;20.05;;;;;;;5.77;100.00;98191.59;5074279;28;20024;-89
2022/01/04 06:30:33;;;;;;;39.63;20.33;;;;;;;5.76;100.00;98190.75;5073468;28;20028;-89
2022/01/04 06:32:59;;;;;;;37.33;19.20;;;;;;;5.83;100.00;98175.44;5073390;28;20135;-88
2022/01/04 06:35:25;;;;;;;38.95;20.15;;;;;;;5.80;100.00;98171.13;5073339;28;20412;-88
2022/01/04 06:37:50;;;;;;;37.33;19.08;;;;;;;5.77;100.00;98165.97;5074949;28;20028;-88
2022/01/04 06:40:16;;;;;;;35.35;18.65;;;;;;;5.81;100.00;98156.09;5074297;28;20031;-89
2022/01/04 06:42:41;;;;;;;36.45;19.92;;;;;;;5.78;100.00;98165.03;5073708;28;20109;-87
2022/01/04 06:45:07;;;;;;;37.90;18.65;;;;;;;5.80;100.00;98151.72;5073009;28;20115;-88
2022/01/04 06:47:32;;;;;;;41.40;20.85;;;;;;;5.74;100.00;98152.00;5072634;28;20028;-87
2022/01/04 06:49:58;;;;;;;38.55;19.58;;;;;;;5.75;100.00;98157.22;5074212;28;20020;-86
2022/01/04 06:52:23;;;;;;;36.90;18.95;;;;;;;5.70;100.00;98149.50;5073899;28;20025;-86
2022/01/04 06:54:49;;;;;;;39.38;19.27;;;;;;;5.79;100.00;98153.53;5073166;28;20024;-85
2022/01/04 06:57:15;;;;;;;39.42;21.00;;;;;;;5.73;100.00;98158.22;5072575;28;20021;-85
2022/01/04 06:59:40;;;;;;;41.60;20.42;;;;;;;5.76;100.00;98150.16;5072519;28;20028;-86
2022/01/04 07:02:05;;;;;;;37.45;21.55;;;;;;;5.72;100.00;98156.53;5073652;28;20052;-86
2022/01/04 07:04:31;;;;;;;41.08;20.38;;;;;;;5.69;100.00;98158.38;5073563;28;20031;-89
2022/01/04 07:06:56;;;;;;;42.67;21.17;;;;;;;5.71;100.00;98158.31;5072447;28;20111;-90
2022/01/04 07:09:22;;;;;;;41.05;21.63;;;;;;;5.67;100.00;98162.03;5115135;22;20180;-85
2022/01/04 07:11:47;;;;;;;47.55;22.25;;;;;;;5.72;100.00;98161.81;5018974;28;20050;-84
2022/01/04 07:14:12;;;;;;;41.00;21.27;;;;;;;5.81;100.00;98161.41;5019053;28;20117;-84
2022/01/04 07:16:38;;;;;;;41.50;21.80;;;;;;;5.76;100.00;98156.31;5018537;28;20374;-81
2022/01/04 07:19:03;;;;;;;39.97;21.50;;;;;;;5.70;100.00;98148.63;5017852;28;20105;-85
2022/01/04 07:21:29;;;;;;;42.47;22.23;;;;;;;5.69;100.00;98158.38;5016838;28;20029;-82
2022/01/04 07:23:55;;;;;;;43.30;22.77;;;;;;;5.70;100.00;98149.50;5017105;28;20022;-85
2022/01/04 07:26:21;;;;;;;43.88;22.35;;;;;;;5.75;100.00;98156.34;5018328;28;20018;-82
2022/01/04 07:28:48;;;;;;;45.50;22.17;;;;;;;5.81;100.00;98156.97;5016322;28;20089;-85
2022/01/04 07:31:14;;;;;;;44.15;22.30;;;;;;;5.75;100.00;98157.22;5015587;28;20033;-85
2022/01/04 07:33:41;;;;;;;48.05;22.77;;;;;;;5.83;100.00;98159.53;5014102;28;20018;-84
2022/01/04 07:36:07;;;;;;;43.22;22.55;;;;;;;5.86;100.00;98156.75;5015413;28;20022;-85
2022/01/04 07:38:36;;;;;;;46.60;23.08;;;;;;;5.78;100.00;98161.53;5019605;28;20029;-85
2022/01/04 07:41:03;;;;;;;42.80;22.60;;;;;;;5.77;100.00;98157.19;5018190;28;20041;-83
2022/01/04 07:43:28;;;;;;;41.13;22.63;;;;;;;5.80;100.00;98154.38;5018556;28;20029;-85
2022/01/04 07:45:54;;;;;;;42.45;21.70;;;;;;;5.70;100.00;98153.94;5019915;28;20029;-85
2022/01/04 07:48:20;;;;;;;47.67;23.63;;;;;;;5.68;100.00;98146.06;5020381;28;20080;-86
2022/01/04 07:50:55;;;;;;;46.55;22.40;;;;;;;5.69;100.00;98150.44;5019170;28;20502;-81
2022/01/04 07:53:22;;;;;;;47.45;23.50;;;;;;;5.67;100.00;98149.63;5019174;28;20033;-83
2022/01/04 07:55:47;;;;;;;49.00;24.00;;;;;;;5.67;100.00;98132.91;5019456;28;20022;-84
2022/01/04 07:58:13;;;;;;;47.83;23.27;;;;;;;5.70;100.00;98130.97;5019761;28;20084;-85
2022/01/04 08:00:38;;;;;;;50.47;23.55;;;;;;;5.75;100.00;98129.88;5018162;28;20026;-85
2022/01/04 08:03:06;;;;;;;48.15;23.15;;;;;;;5.66;100.00;98128.53;5020082;28;20105;-85
2022/01/04 08:05:35;;;;;;;50.30;23.20;;;;;;;5.73;100.00;98134.38;5019621;28;20026;-85
2022/01/04 08:08:00;;;;;;;50.22;23.23;;;;;;;5.66;100.00;98115.28;5018358;28;20029;-85
2022/01/04 08:10:25;;;;;;;51.47;24.10;;;;;;;5.65;100.00;98103.81;5015100;28;20040;-84
2022/01/04 08:12:51;;;;;;;49.28;24.38;;;;;;;5.64;100.00;98096.81;5014178;28;20026;-83
2022/01/04 08:15:28;;;;;;;54.53;25.02;;;;;;;5.63;100.00;98084.50;5015372;28;20018;-84
2022/01/04 08:17:57;;;;;;;50.70;24.42;;;;;;;5.68;100.00;98095.75;5014536;28;20072;-83
2022/01/04 08:20:26;;;;;;;48.05;22.95;;;;;;;5.68;100.00;98095.75;5016551;28;20025;-84
2022/01/04 08:22:51;;;;;;;51.95;24.95;;;;;;;5.66;100.00;98092.31;5018871;28;20018;-83
2022/01/04 08:25:16;;;;;;;47.63;24.52;;;;;;;5.68;100.00;98084.28;5019466;28;20029;-86
2022/01/04 08:27:42;;;;;;;50.78;23.98;;;;;;;5.67;100.00;98079.94;5019671;28;20024;-85
2022/01/04 08:30:10;;;;;;;48.05;24.08;;;;;;;5.73;100.00;98073.47;5022239;28;20038;-87
2022/01/04 08:32:39;;;;;;;47.65;23.30;;;;;;;5.68;100.00;98071.06;5021505;28;20078;-86
2022/01/04 08:35:06;;;;;;;50.55;23.83;;;;;;;5.69;100.00;98073.66;5021129;28;20014;-85
2022/01/04 08:37:31;;;;;;;52.08;22.85;;;;;;;5.69;100.00;98076.28;5021372;28;20026;-86
2022/01/04 08:39:56;;;;;;;43.00;22.77;;;;;;;5.80;100.00;98064.31;5023359;28;20639;-86
2022/01/04 08:42:22;;;;;;;53.38;24.25;;;;;;;5.80;100.00;98061.66;5025198;28;20025;-85
2022/01/04 08:44:52;;;;;;;54.80;23.80;;;;;;;5.76;100.00;98057.47;5024749;28;20030;-86
2022/01/04 08:47:20;;;;;;;46.20;22.63;;;;;;;5.81;100.00;98040.44;5019619;28;20109;-86
2022/01/04 08:50:07;;;;;;;54.03;23.75;;;;;;;5.77;100.00;98044.13;5019029;28;20426;-85
2022/01/04 08:52:37;;;;;;;46.55;22.88;;;;;;;5.80;100.00;98057.25;5020855;28;20475;-87
2022/01/04 08:55:03;;;;;;;42.85;22.40;;;;;;;5.83;100.00;98045.66;5021407;28;20126;-86
2022/01/04 08:57:31;;;;;;;43.42;22.27;;;;;;;5.80;100.00;98053.72;5022409;28;20042;-87
2022/01/04 09:00:00;;;;;;;44.63;22.25;;;;;;;5.76;100.00;98049.50;5021723;28;20048;-85
2022/01/04 09:02:25;;;;;;;45.20;21.02;;;;;;;5.80;100.00;98048.44;5022755;28;20106;-86
2022/01/04 09:04:53;;;;;;;44.20;21.48;;;;;;;5.79;100.00;98057.31;5023340;28;20057;-82
2022/01/04 09:07:22;;;;;;;43.22;20.80;;;;;;;5.84;100.00;98070.34;5023495;28;20414;-84
2022/01/04 09:10:00;;;;;;;43.92;21.48;;;;;;;5.85;100.00;98072.06;5026029;28;20570;-84
2022/01/04 09:12:40;;;;;;;44.38;21.88;;;;;;;5.86;100.00;98077.28;5023210;28;20441;-85
2022/01/04 09:15:55;;;;;;;47.15;23.20;;;;;;;5.85;100.00;98057.03;5025070;28;20018;-83
2022/01/04 09:19:01;;;;;;;42.40;21.25;;;;;;;5.81;100.00;98053.69;5023229;28;20057;-85
2022/01/04 09:21:07;;;;;;;46.70;23.92;;;;;;;5.88;100.00;98056.03;5013090;28;20038;-84
2022/01/04 09:23:33;;;;;;;46.13;23.42;;;;;;;5.86;100.00;98064.06;5023664;28;20022;-85
2022/01/04 09:25:59;;;;;;;47.13;22.85;;;;;;;5.89;100.00;98063.06;5021702;28;20049;-85
2022/01/04 09:28:25;;;;;;;49.65;23.40;;;;;;;5.83;100.00;98074.78;5021305;28;20112;-83
2022/01/04 09:30:51;;;;;;;45.50;23.65;;;;;;;5.86;100.00;98077.28;5020648;28;20038;-83
2022/01/04 09:33:18;;;;;;;44.63;22.20;;;;;;;5.84;100.00;98075.66;5023855;28;20029;-85
2022/01/04 09:35:44;;;;;;;49.40;24.60;;;;;;;5.91;100.00;98077.06;5021428;28;20029;-84
2022/01/04 09:38:15;;;;;;;42.72;22.65;;;;;;;5.90;100.00;98086.81;5021326;28;20034;-85
2022/01/04 09:40:40;;;;;;;45.72;23.25;;;;;;;5.85;100.00;98088.81;5021305;28;20033;-84
2022/01/04 09:43:09;;;;;;;43.50;22.88;;;;;;;5.96;100.00;98096.25;5023041;28;20030;-85
2022/01/04 09:45:35;;;;;;;42.83;22.63;;;;;;;5.97;100.00;98099.78;5022980;28;20502;-86
2022/01/04 09:48:03;;;;;;;43.17;23.42;;;;;;;5.92;100.00;98095.56;5028235;28;20121;-85
2022/01/04 09:50:41;;;;;;;41.50;21.27;;;;;;;5.95;100.00;98099.00;5022663;28;20025;-85
2022/01/04 09:53:17;;;;;;;46.10;21.73;;;;;;;5.92;100.00;98092.91;5019189;28;20105;-85
2022/01/04 09:55:43;;;;;;;47.15;24.02;;;;;;;5.92;100.00;98094.69;5016399;28;20021;-85
2022/01/04 09:58:16;;;;;;;45.33;23.52;;;;;;;5.93;100.00;98088.44;5018778;28;20026;-85
2022/01/04 10:00:41;;;;;;;48.63;23.80;;;;;;;5.88;100.00;98083.38;5018074;28;20548;-85
2022/01/04 10:03:18;;;;;;;40.17;21.65;;;;;;;5.93;100.00;98075.22;5024094;28;20149;-85
2022/01/04 10:05:45;;;;;;;41.03;21.27;;;;;;;5.95;100.00;98059.25;5016472;28;20101;-85
2022/01/04 10:08:14;;;;;;;46.10;22.67;;;;;;;5.93;100.00;98041.63;5018422;28;20040;-85
2022/01/04 10:10:41;;;;;;;38.60;20.95;;;;;;;5.97;100.00;98049.44;5017194;28;20060;-85
2022/01/04 10:13:16;;;;;;;38.25;21.00;;;;;;;5.95;100.00;98053.97;5015766;28;20026;-85
2022/01/04 10:15:44;;;;;;;37.85;20.38;;;;;;;5.98;100.00;98061.78;5018199;28;20029;-85
2022/01/04 10:18:12;;;;;;;37.17;20.58;;;;;;;6.02;100.00;98058.03;5019690;28;20053;-86
2022/01/04 10:20:37;;;;;;;37.22;19.13;;;;;;;5.95;100.00;98051.31;5015532;28;20092;-85
2022/01/04 10:23:11;;;;;;;35.67;19.23;;;;;;;6.07;100.00;98039.25;5015395;28;20446;-86
2022/01/04 10:25:36;;;;;;;;;;;;;;;6.03;100.00;98042.06;5016258;28;20026;-87
2022/01/04 10:28:02;;;;;;;37.92;19.25;;;;;;;6.00;100.00;98052.81;5016265;28;20016;-86
2022/01/04 10:30:32;;;;;;;32.42;18.85;;;;;;;6.07;100.00;98061.34;5015680;28;20077;-86
2022/01/04 10:33:33;;;;;;;34.38;18.85;;;;;;;6.01;100.00;98058.94;5016386;28;20028;-86
2022/01/04 10:36:00;;;;;;;36.97;19.75;;;;;;;6.01;100.00;98045.72;5015559;28;20085;-85
2022/01/04 10:38:35;;;;;;;35.33;18.83;;;;;;;5.96;100.00;98032.69;5014774;28;20030;-86
2022/01/04 10:41:12;;;;;;;30.73;18.02;;;;;;;6.05;100.00;98042.00;5016310;28;20049;-84
2022/01/04 10:43:43;;;;;;;35.05;19.65;;;;;;;6.02;100.00;98042.13;5015987;28;20390;-84
2022/01/04 10:46:27;;;;;;;36.72;19.77;;;;;;;6.06;100.00;98033.09;5014485;28;20407;-84
2022/01/04 10:48:52;;;;;;;34.33;18.70;;;;;;;6.07;100.00;98032.22;5015824;28;20075;-84
2022/01/04 10:51:22;;;;;;;31.25;18.35;;;;;;;6.06;100.00;98021.63;5015099;28;20025;-84
2022/01/04 10:54:00;;;;;;;37.15;19.05;;;;;;;6.04;100.00;98013.78;5014842;28;20057;-84
2022/01/04 10:56:38;;;;;;;34.30;19.15;;;;;;;6.06;100.00;98011.03;5016012;28;20072;-85
2022/01/04 10:59:11;;;;;;;33.40;18.40;;;;;;;6.01;100.00;98012.13;5015507;28;20044;-83
2022/01/04 11:01:50;;;;;;;37.83;19.45;;;;;;;6.02;100.00;98021.81;5014940;28;20097;-82
2022/01/04 11:04:18;;;;;;;36.53;20.67;;;;;;;6.08;100.00;98010.06;5016596;28;20034;-85
2022/01/04 11:06:44;;;;;;;35.97;19.40;;;;;;;6.10;100.00;97997.63;5014706;28;20102;-85
2022/01/04 11:09:11;;;;;;;34.58;20.00;;;;;;;6.14;100.00;98000.97;5014567;28;20022;-85
2022/01/04 11:11:40;;;;;;;38.47;19.67;;;;;;;6.20;100.00;97990.09;5013466;28;20490;-85
2022/01/04 11:14:08;;;;;;;32.67;19.17;;;;;;;6.18;100.00;97988.44;5013634;28;20037;-84
2022/01/04 11:16:33;;;;;;;37.28;20.05;;;;;;;6.15;100.00;97978.84;5014100;28;20554;-83
2022/01/04 11:19:06;;;;;;;37.58;20.98;;;;;;;6.16;100.00;97990.31;5014944;28;20053;-82
2022/01/04 11:21:42;;;;;;;37.20;20.33;;;;;;;6.19;100.00;97985.69;5013980;28;20029;-83